sensor_id;sensor_type;location;lat;lon;timestamp;pressure;altitude;pressure_sealevel;temperature;humidity
63281;BME280;49406;51.044;3.766;2022-10-30T00:01:28;101744.48;;;15.37;94.47
63281;BME280;49406;51.044;3.766;2022-10-30T00:04:03;101741.42;;;15.17;95.24
63281;BME280;49406;51.044;3.766;2022-10-30T00:06:36;101741.23;;;15.14;95.23
63281;BME280;49406;51.044;3.766;2022-10-30T00:09:11;101744.58;;;15.13;95.10
63281;BME280;49406;51.044;3.766;2022-10-30T00:11:46;101741.36;;;15.05;95.45
63281;BME280;49406;51.044;3.766;2022-10-30T00:14:20;101743.75;;;14.85;96.59
63281;BME280;49406;51.044;3.766;2022-10-30T00:16:55;101743.56;;;14.84;96.80
63281;BME280;49406;51.044;3.766;2022-10-30T00:19:30;101745.85;;;14.81;96.71
63281;BME280;49406;51.044;3.766;2022-10-30T00:22:04;101744.55;;;14.71;98.07
63281;BME280;49406;51.044;3.766;2022-10-30T00:24:39;101745.17;;;14.59;99.12
63281;BME280;49406;51.044;3.766;2022-10-30T00:27:13;101740.09;;;14.59;98.91
63281;BME280;49406;51.044;3.766;2022-10-30T00:29:48;101739.38;;;14.61;99.46
63281;BME280;49406;51.044;3.766;2022-10-30T00:32:22;101743.73;;;14.53;99.45
63281;BME280;49406;51.044;3.766;2022-10-30T00:34:57;101741.14;;;14.39;100.00
63281;BME280;49406;51.044;3.766;2022-10-30T00:37:32;101746.97;;;14.42;99.96
63281;BME280;49406;51.044;3.766;2022-10-30T00:40:11;101744.85;;;14.41;100.00
63281;BME280;49406;51.044;3.766;2022-10-30T00:42:47;101747.98;;;14.34;99.95
63281;BME280;49406;51.044;3.766;2022-10-30T00:45:22;101748.04;;;14.19;100.00
63281;BME280;49406;51.044;3.766;2022-10-30T00:48:00;101744.73;;;14.23;100.00
63281;BME280;49406;51.044;3.766;2022-10-30T00:50:37;101741.20;;;14.21;100.00
63281;BME280;49406;51.044;3.766;2022-10-30T00:53:11;101739.38;;;14.12;100.00
63281;BME280;49406;51.044;3.766;2022-10-30T00:55:51;101739.77;;;13.96;100.00
63281;BME280;49406;51.044;3.766;2022-10-30T00:58:30;101728.92;;;14.02;100.00
63281;BME280;49406;51.044;3.766;2022-10-30T01:01:08;101732.42;;;14.00;100.00
63281;BME280;49406;51.044;3.766;2022-10-30T01:03:45;101732.36;;;13.93;100.00
63281;BME280;49406;51.044;3.766;2022-10-30T01:06:20;101732.60;;;13.80;100.00
63281;BME280;49406;51.044;3.766;2022-10-30T01:08:56;101732.29;;;13.85;100.00
63281;BME280;49406;51.044;3.766;2022-10-30T01:11:31;101734.22;;;13.84;100.00
63281;BME280;49406;51.044;3.766;2022-10-30T01:14:07;101738.64;;;13.69;100.00
63281;BME280;49406;51.044;3.766;2022-10-30T01:16:54;101744.59;;;13.66;100.00
63281;BME280;49406;51.044;3.766;2022-10-30T01:19:37;101742.35;;;13.71;100.00
63281;BME280;49406;51.044;3.766;2022-10-30T01:22:25;101742.69;;;13.70;100.00
63281;BME280;49406;51.044;3.766;2022-10-30T01:25:10;101738.31;;;13.53;100.00
63281;BME280;49406;51.044;3.766;2022-10-30T01:27:57;101738.80;;;13.49;100.00
63281;BME280;49406;51.044;3.766;2022-10-30T01:30:37;101737.25;;;13.53;100.00
63281;BME280;49406;51.044;3.766;2022-10-30T01:33:18;101736.35;;;13.49;100.00
63281;BME280;49406;51.044;3.766;2022-10-30T01:36:00;101733.75;;;13.38;100.00
63281;BME280;49406;51.044;3.766;2022-10-30T01:38:41;101728.55;;;13.43;100.00
63281;BME280;49406;51.044;3.766;2022-10-30T01:41:17;101731.55;;;13.44;100.00
63281;BME280;49406;51.044;3.766;2022-10-30T01:43:56;101736.73;;;13.37;100.00
63281;BME280;49406;51.044;3.766;2022-10-30T01:46:54;101738.90;;;13.27;100.00
63281;BME280;49406;51.044;3.766;2022-10-30T01:49:48;101735.64;;;13.33;100.00
63281;BME280;49406;51.044;3.766;2022-10-30T01:52:34;101734.20;;;13.30;100.00
63281;BME280;49406;51.044;3.766;2022-10-30T01:55:21;101738.09;;;13.18;100.00
63281;BME280;49406;51.044;3.766;2022-10-30T01:58:01;101741.13;;;13.22;100.00
63281;BME280;49406;51.044;3.766;2022-10-30T02:00:41;101739.41;;;13.26;100.00
63281;BME280;49406;51.044;3.766;2022-10-30T02:03:17;101743.25;;;13.24;100.00
63281;BME280;49406;51.044;3.766;2022-10-30T02:05:53;101741.28;;;13.09;100.00
63281;BME280;49406;51.044;3.766;2022-10-30T02:08:28;101742.06;;;13.14;100.00
63281;BME280;49406;51.044;3.766;2022-10-30T02:11:02;101740.85;;;13.16;100.00
63281;BME280;49406;51.044;3.766;2022-10-30T02:13:38;101738.91;;;13.15;100.00
63281;BME280;49406;51.044;3.766;2022-10-30T02:16:13;101740.31;;;13.01;100.00
63281;BME280;49406;51.044;3.766;2022-10-30T02:18:47;101739.63;;;13.03;100.00
63281;BME280;49406;51.044;3.766;2022-10-30T02:21:22;101736.66;;;13.05;100.00
63281;BME280;49406;51.044;3.766;2022-10-30T02:23:56;101734.17;;;13.02;100.00
63281;BME280;49406;51.044;3.766;2022-10-30T02:26:31;101736.55;;;12.95;100.00
63281;BME280;49406;51.044;3.766;2022-10-30T02:29:05;101742.34;;;12.81;100.00
63281;BME280;49406;51.044;3.766;2022-10-30T02:31:40;101742.36;;;12.83;100.00
63281;BME280;49406;51.044;3.766;2022-10-30T02:34:14;101740.06;;;12.81;100.00
63281;BME280;49406;51.044;3.766;2022-10-30T02:36:49;101735.45;;;12.78;100.00
63281;BME280;49406;51.044;3.766;2022-10-30T02:39:24;101729.27;;;12.76;100.00
63281;BME280;49406;51.044;3.766;2022-10-30T02:41:58;101720.17;;;12.64;100.00
63281;BME280;49406;51.044;3.766;2022-10-30T02:44:34;101724.61;;;12.55;100.00
63281;BME280;49406;51.044;3.766;2022-10-30T02:47:08;101735.98;;;12.66;100.00
63281;BME280;49406;51.044;3.766;2022-10-30T02:49:43;101731.13;;;12.70;100.00
63281;BME280;49406;51.044;3.766;2022-10-30T02:52:17;101733.42;;;12.72;100.00
63281;BME280;49406;51.044;3.766;2022-10-30T02:54:52;101732.50;;;12.67;100.00
63281;BME280;49406;51.044;3.766;2022-10-30T02:57:27;101737.27;;;12.58;100.00
63281;BME280;49406;51.044;3.766;2022-10-30T03:00:01;101737.77;;;12.67;100.00
63281;BME280;49406;51.044;3.766;2022-10-30T03:02:36;101741.67;;;12.72;100.00
63281;BME280;49406;51.044;3.766;2022-10-30T03:05:10;101734.48;;;12.72;100.00
63281;BME280;49406;51.044;3.766;2022-10-30T03:07:45;101736.13;;;12.62;100.00
63281;BME280;49406;51.044;3.766;2022-10-30T03:10:20;101733.96;;;12.72;100.00
63281;BME280;49406;51.044;3.766;2022-10-30T03:12:53;101734.23;;;12.77;100.00
63281;BME280;49406;51.044;3.766;2022-10-30T03:15:28;101727.23;;;12.68;100.00
63281;BME280;49406;51.044;3.766;2022-10-30T03:18:03;101728.11;;;12.55;100.00
63281;BME280;49406;51.044;3.766;2022-10-30T03:20:37;101729.80;;;12.61;100.00
63281;BME280;49406;51.044;3.766;2022-10-30T03:23:12;101723.25;;;12.59;100.00
63281;BME280;49406;51.044;3.766;2022-10-30T03:25:46;101722.95;;;12.50;100.00
63281;BME280;49406;51.044;3.766;2022-10-30T03:28:21;101727.72;;;12.40;100.00
63281;BME280;49406;51.044;3.766;2022-10-30T03:31:00;101721.17;;;12.48;100.00
63281;BME280;49406;51.044;3.766;2022-10-30T03:33:36;101719.30;;;12.51;100.00
63281;BME280;49406;51.044;3.766;2022-10-30T03:36:12;101714.39;;;12.52;100.00
63281;BME280;49406;51.044;3.766;2022-10-30T03:38:47;101716.02;;;12.44;100.00
63281;BME280;49406;51.044;3.766;2022-10-30T03:41:21;101723.08;;;12.34;100.00
63281;BME280;49406;51.044;3.766;2022-10-30T03:43:56;101716.46;;;12.38;100.00
63281;BME280;49406;51.044;3.766;2022-10-30T03:46:31;101724.90;;;12.39;100.00
63281;BME280;49406;51.044;3.766;2022-10-30T03:49:05;101724.02;;;12.26;100.00
63281;BME280;49406;51.044;3.766;2022-10-30T03:51:40;101721.31;;;12.22;100.00
63281;BME280;49406;51.044;3.766;2022-10-30T03:54:14;101718.64;;;12.30;100.00
63281;BME280;49406;51.044;3.766;2022-10-30T03:56:49;101721.23;;;12.28;100.00
63281;BME280;49406;51.044;3.766;2022-10-30T03:59:23;101722.56;;;12.12;100.00
63281;BME280;49406;51.044;3.766;2022-10-30T04:01:56;101727.62;;;12.10;100.00
63281;BME280;49406;51.044;3.766;2022-10-30T04:04:31;101725.04;;;12.13;100.00
63281;BME280;49406;51.044;3.766;2022-10-30T04:07:05;101728.54;;;12.12;100.00
63281;BME280;49406;51.044;3.766;2022-10-30T04:09:40;101726.64;;;12.04;100.00
63281;BME280;49406;51.044;3.766;2022-10-30T04:12:15;101731.65;;;11.99;100.00
63281;BME280;49406;51.044;3.766;2022-10-30T04:14:49;101728.98;;;12.09;100.00
63281;BME280;49406;51.044;3.766;2022-10-30T04:17:24;101734.14;;;12.12;100.00
63281;BME280;49406;51.044;3.766;2022-10-30T04:19:58;101736.14;;;12.07;100.00
63281;BME280;49406;51.044;3.766;2022-10-30T04:22:33;101737.20;;;11.96;100.00
63281;BME280;49406;51.044;3.766;2022-10-30T04:25:08;101732.54;;;12.01;100.00
63281;BME280;49406;51.044;3.766;2022-10-30T04:27:43;101731.13;;;11.99;100.00
63281;BME280;49406;51.044;3.766;2022-10-30T04:30:18;101742.57;;;11.93;100.00
63281;BME280;49406;51.044;3.766;2022-10-30T04:32:54;101739.14;;;11.87;100.00
63281;BME280;49406;51.044;3.766;2022-10-30T04:35:30;101739.29;;;11.95;100.00
63281;BME280;49406;51.044;3.766;2022-10-30T04:38:06;101737.69;;;11.94;100.00
63281;BME280;49406;51.044;3.766;2022-10-30T04:40:40;101740.27;;;11.82;100.00
63281;BME280;49406;51.044;3.766;2022-10-30T04:43:15;101742.92;;;11.75;100.00
63281;BME280;49406;51.044;3.766;2022-10-30T04:45:49;101735.34;;;11.80;100.00
63281;BME280;49406;51.044;3.766;2022-10-30T04:48:24;101734.30;;;11.80;100.00
63281;BME280;49406;51.044;3.766;2022-10-30T04:50:59;101728.90;;;11.73;100.00
63281;BME280;49406;51.044;3.766;2022-10-30T04:53:34;101722.71;;;11.61;100.00
63281;BME280;49406;51.044;3.766;2022-10-30T04:56:09;101716.17;;;11.67;100.00
63281;BME280;49406;51.044;3.766;2022-10-30T04:58:44;101713.24;;;11.70;100.00
63281;BME280;49406;51.044;3.766;2022-10-30T05:01:18;101710.64;;;11.71;100.00
63281;BME280;49406;51.044;3.766;2022-10-30T05:03:53;101715.36;;;11.71;100.00
63281;BME280;49406;51.044;3.766;2022-10-30T05:06:28;101721.27;;;11.59;100.00
63281;BME280;49406;51.044;3.766;2022-10-30T05:09:03;101726.58;;;11.61;100.00
63281;BME280;49406;51.044;3.766;2022-10-30T05:11:38;101723.85;;;11.65;100.00
63281;BME280;49406;51.044;3.766;2022-10-30T05:14:13;101727.91;;;11.67;100.00
63281;BME280;49406;51.044;3.766;2022-10-30T05:16:47;101731.80;;;11.70;100.00
63281;BME280;49406;51.044;3.766;2022-10-30T05:19:22;101728.02;;;11.64;100.00
63281;BME280;49406;51.044;3.766;2022-10-30T05:21:57;101727.45;;;11.62;100.00
63281;BME280;49406;51.044;3.766;2022-10-30T05:24:30;101726.21;;;11.71;100.00
63281;BME280;49406;51.044;3.766;2022-10-30T05:27:04;101722.11;;;11.76;100.00
63281;BME280;49406;51.044;3.766;2022-10-30T05:29:39;101718.75;;;11.74;100.00
63281;BME280;49406;51.044;3.766;2022-10-30T05:32:13;101709.09;;;11.63;100.00
63281;BME280;49406;51.044;3.766;2022-10-30T05:34:48;101715.72;;;11.72;100.00
63281;BME280;49406;51.044;3.766;2022-10-30T05:37:22;101717.08;;;11.78;100.00
63281;BME280;49406;51.044;3.766;2022-10-30T05:39:57;101710.86;;;11.74;100.00
63281;BME280;49406;51.044;3.766;2022-10-30T05:42:32;101709.78;;;11.62;100.00
63281;BME280;49406;51.044;3.766;2022-10-30T05:45:08;101716.85;;;11.75;100.00
63281;BME280;49406;51.044;3.766;2022-10-30T05:47:43;101714.91;;;11.84;100.00
63281;BME280;49406;51.044;3.766;2022-10-30T05:50:16;101713.30;;;11.83;100.00
63281;BME280;49406;51.044;3.766;2022-10-30T05:52:50;101707.23;;;11.76;100.00
63281;BME280;49406;51.044;3.766;2022-10-30T05:55:28;101704.92;;;11.84;100.00
63281;BME280;49406;51.044;3.766;2022-10-30T05:58:04;101700.35;;;11.84;100.00
63281;BME280;49406;51.044;3.766;2022-10-30T06:00:39;101702.81;;;11.75;100.00
63281;BME280;49406;51.044;3.766;2022-10-30T06:03:14;101700.95;;;11.77;100.00
63281;BME280;49406;51.044;3.766;2022-10-30T06:05:47;101696.31;;;11.82;100.00
63281;BME280;49406;51.044;3.766;2022-10-30T06:08:22;101695.09;;;11.82;100.00
63281;BME280;49406;51.044;3.766;2022-10-30T06:10:55;101693.69;;;11.74;100.00
63281;BME280;49406;51.044;3.766;2022-10-30T06:13:29;101695.09;;;11.63;100.00
63281;BME280;49406;51.044;3.766;2022-10-30T06:16:05;101702.71;;;11.69;100.00
63281;BME280;49406;51.044;3.766;2022-10-30T06:18:37;101703.27;;;11.71;100.00
63281;BME280;49406;51.044;3.766;2022-10-30T06:21:12;101696.48;;;11.74;100.00
63281;BME280;49406;51.044;3.766;2022-10-30T06:23:48;101697.93;;;11.66;100.00
63281;BME280;49406;51.044;3.766;2022-10-30T06:26:22;101700.09;;;11.59;100.00
63281;BME280;49406;51.044;3.766;2022-10-30T06:28:57;101702.17;;;11.68;100.00
63281;BME280;49406;51.044;3.766;2022-10-30T06:31:32;101699.39;;;11.70;100.00
63281;BME280;49406;51.044;3.766;2022-10-30T06:34:07;101699.61;;;11.62;100.00
63281;BME280;49406;51.044;3.766;2022-10-30T06:36:41;101704.78;;;11.57;100.00
63281;BME280;49406;51.044;3.766;2022-10-30T06:39:16;101703.88;;;11.65;100.00
63281;BME280;49406;51.044;3.766;2022-10-30T06:41:52;101707.55;;;11.65;100.00
63281;BME280;49406;51.044;3.766;2022-10-30T06:44:27;101711.72;;;11.63;100.00
63281;BME280;49406;51.044;3.766;2022-10-30T06:47:02;101716.17;;;11.57;100.00
63281;BME280;49406;51.044;3.766;2022-10-30T06:49:36;101708.30;;;11.67;100.00
63281;BME280;49406;51.044;3.766;2022-10-30T06:52:10;101705.21;;;11.72;100.00
63281;BME280;49406;51.044;3.766;2022-10-30T06:54:47;101703.76;;;11.69;100.00
63281;BME280;49406;51.044;3.766;2022-10-30T06:57:21;101708.52;;;11.60;100.00
63281;BME280;49406;51.044;3.766;2022-10-30T06:59:56;101713.80;;;11.72;100.00
63281;BME280;49406;51.044;3.766;2022-10-30T07:02:30;101704.67;;;11.80;100.00
63281;BME280;49406;51.044;3.766;2022-10-30T07:05:06;101705.02;;;11.90;100.00
63281;BME280;49406;51.044;3.766;2022-10-30T07:07:40;101714.15;;;11.91;100.00
63281;BME280;49406;51.044;3.766;2022-10-30T07:10:15;101711.45;;;12.08;100.00
63281;BME280;49406;51.044;3.766;2022-10-30T07:12:54;101711.27;;;12.19;100.00
63281;BME280;49406;51.044;3.766;2022-10-30T07:15:30;101709.35;;;12.19;100.00
63281;BME280;49406;51.044;3.766;2022-10-30T07:18:05;101712.89;;;12.21;100.00
63281;BME280;49406;51.044;3.766;2022-10-30T07:20:39;101718.36;;;12.35;100.00
63281;BME280;49406;51.044;3.766;2022-10-30T07:23:14;101718.68;;;12.45;100.00
63281;BME280;49406;51.044;3.766;2022-10-30T07:25:49;101718.19;;;12.47;100.00
63281;BME280;49406;51.044;3.766;2022-10-30T07:28:23;101719.17;;;12.68;100.00
63281;BME280;49406;51.044;3.766;2022-10-30T07:30:58;101723.30;;;12.87;100.00
63281;BME280;49406;51.044;3.766;2022-10-30T07:33:33;101720.16;;;12.90;100.00
63281;BME280;49406;51.044;3.766;2022-10-30T07:36:08;101717.67;;;12.87;100.00
63281;BME280;49406;51.044;3.766;2022-10-30T07:38:44;101720.65;;;13.01;100.00
63281;BME280;49406;51.044;3.766;2022-10-30T07:41:21;101712.63;;;13.06;100.00
63281;BME280;49406;51.044;3.766;2022-10-30T07:43:56;101705.71;;;12.99;100.00
63281;BME280;49406;51.044;3.766;2022-10-30T07:46:30;101704.91;;;13.06;100.00
63281;BME280;49406;51.044;3.766;2022-10-30T07:49:05;101706.85;;;13.20;100.00
63281;BME280;49406;51.044;3.766;2022-10-30T07:51:39;101710.60;;;13.25;100.00
63281;BME280;49406;51.044;3.766;2022-10-30T07:54:14;101704.04;;;13.19;100.00
63281;BME280;49406;51.044;3.766;2022-10-30T07:56:48;101704.92;;;13.36;100.00
63281;BME280;49406;51.044;3.766;2022-10-30T07:59:23;101703.48;;;13.49;100.00
63281;BME280;49406;51.044;3.766;2022-10-30T08:01:57;101709.15;;;13.53;100.00
63281;BME280;49406;51.044;3.766;2022-10-30T08:04:34;101715.17;;;13.60;100.00
63281;BME280;49406;51.044;3.766;2022-10-30T08:07:09;101720.69;;;13.85;100.00
63281;BME280;49406;51.044;3.766;2022-10-30T08:09:44;101721.55;;;14.05;100.00
63281;BME280;49406;51.044;3.766;2022-10-30T08:12:19;101730.06;;;14.11;100.00
63281;BME280;49406;51.044;3.766;2022-10-30T08:14:54;101735.42;;;14.24;100.00
63281;BME280;49406;51.044;3.766;2022-10-30T08:17:28;101738.08;;;14.50;100.00
63281;BME280;49406;51.044;3.766;2022-10-30T08:20:03;101740.48;;;14.66;100.00
63281;BME280;49406;51.044;3.766;2022-10-30T08:22:43;101745.42;;;14.67;100.00
63281;BME280;49406;51.044;3.766;2022-10-30T08:25:19;101743.73;;;14.84;100.00
63281;BME280;49406;51.044;3.766;2022-10-30T08:27:56;101746.13;;;15.07;100.00
63281;BME280;49406;51.044;3.766;2022-10-30T08:30:33;101740.02;;;15.17;100.00
63281;BME280;49406;51.044;3.766;2022-10-30T08:33:11;101734.60;;;15.35;100.00
63281;BME280;49406;51.044;3.766;2022-10-30T08:35:51;101735.75;;;15.68;100.00
63281;BME280;49406;51.044;3.766;2022-10-30T08:38:27;101741.08;;;15.84;100.00
63281;BME280;49406;51.044;3.766;2022-10-30T08:41:03;101739.32;;;16.02;100.00
63281;BME280;49406;51.044;3.766;2022-10-30T08:43:37;101738.75;;;16.41;100.00
63281;BME280;49406;51.044;3.766;2022-10-30T08:46:12;101741.98;;;16.95;99.84
63281;BME280;49406;51.044;3.766;2022-10-30T08:48:46;101739.73;;;17.25;99.04
63281;BME280;49406;51.044;3.766;2022-10-30T08:51:21;101736.06;;;17.49;97.60
63281;BME280;49406;51.044;3.766;2022-10-30T08:53:56;101733.63;;;17.74;97.33
63281;BME280;49406;51.044;3.766;2022-10-30T08:56:30;101728.83;;;18.00;94.77
63281;BME280;49406;51.044;3.766;2022-10-30T08:59:05;101736.45;;;18.20;93.07
63281;BME280;49406;51.044;3.766;2022-10-30T09:01:40;101738.38;;;18.21;91.79
63281;BME280;49406;51.044;3.766;2022-10-30T09:04:15;101740.23;;;18.31;89.87
63281;BME280;49406;51.044;3.766;2022-10-30T09:06:48;101742.85;;;18.37;89.36
63281;BME280;49406;51.044;3.766;2022-10-30T09:09:22;101739.89;;;18.29;87.57
63281;BME280;49406;51.044;3.766;2022-10-30T09:11:57;101739.70;;;18.32;86.83
63281;BME280;49406;51.044;3.766;2022-10-30T09:14:31;101732.48;;;18.44;86.75
63281;BME280;49406;51.044;3.766;2022-10-30T09:17:06;101728.98;;;18.61;86.42
63281;BME280;49406;51.044;3.766;2022-10-30T09:19:40;101739.14;;;18.86;85.98
63281;BME280;49406;51.044;3.766;2022-10-30T09:22:15;101735.52;;;19.07;83.48
63281;BME280;49406;51.044;3.766;2022-10-30T09:24:50;101731.98;;;19.07;82.98
63281;BME280;49406;51.044;3.766;2022-10-30T09:27:24;101734.42;;;18.95;83.05
63281;BME280;49406;51.044;3.766;2022-10-30T09:29:59;101726.39;;;19.01;82.87
63281;BME280;49406;51.044;3.766;2022-10-30T09:32:34;101725.53;;;18.99;82.43
63281;BME280;49406;51.044;3.766;2022-10-30T09:35:07;101720.13;;;19.05;82.93
63281;BME280;49406;51.044;3.766;2022-10-30T09:37:42;101726.48;;;19.20;82.14
63281;BME280;49406;51.044;3.766;2022-10-30T09:40:22;101721.79;;;19.15;82.60
63281;BME280;49406;51.044;3.766;2022-10-30T09:43:07;101725.48;;;19.29;81.93
63281;BME280;49406;51.044;3.766;2022-10-30T09:45:59;101725.92;;;19.36;81.73
63281;BME280;49406;51.044;3.766;2022-10-30T09:48:40;101724.50;;;19.36;81.71
63281;BME280;49406;51.044;3.766;2022-10-30T09:54:16;101716.83;;;19.52;80.74
63281;BME280;49406;51.044;3.766;2022-10-30T09:56:59;101712.08;;;19.49;80.47
63281;BME280;49406;51.044;3.766;2022-10-30T09:59:46;101706.69;;;19.54;79.05
63281;BME280;49406;51.044;3.766;2022-10-30T10:02:31;101704.56;;;19.56;78.84
63281;BME280;49406;51.044;3.766;2022-10-30T10:05:14;101699.41;;;19.56;78.85
63281;BME280;49406;51.044;3.766;2022-10-30T10:07:51;101696.34;;;19.59;78.67
63281;BME280;49406;51.044;3.766;2022-10-30T10:10:29;101690.85;;;19.70;78.74
63281;BME280;49406;51.044;3.766;2022-10-30T10:13:11;101689.95;;;19.82;78.44
63281;BME280;49406;51.044;3.766;2022-10-30T10:15:50;101701.48;;;19.82;79.01
63281;BME280;49406;51.044;3.766;2022-10-30T10:18:30;101713.36;;;19.83;78.85
63281;BME280;49406;51.044;3.766;2022-10-30T10:21:12;101712.79;;;19.85;78.10
63281;BME280;49406;51.044;3.766;2022-10-30T10:23:50;101710.60;;;19.98;77.48
63281;BME280;49406;51.044;3.766;2022-10-30T10:26:30;101711.31;;;19.97;77.40
63281;BME280;49406;51.044;3.766;2022-10-30T10:29:30;101705.27;;;19.99;77.77
63281;BME280;49406;51.044;3.766;2022-10-30T10:32:33;101706.08;;;20.04;77.88
63281;BME280;49406;51.044;3.766;2022-10-30T10:35:51;101708.63;;;20.10;77.20
63281;BME280;49406;51.044;3.766;2022-10-30T10:38:41;101706.52;;;20.19;75.68
63281;BME280;49406;51.044;3.766;2022-10-30T10:41:25;101711.70;;;20.18;75.33
63281;BME280;49406;51.044;3.766;2022-10-30T10:44:18;101715.22;;;20.08;76.30
63281;BME280;49406;51.044;3.766;2022-10-30T10:47:05;101719.72;;;20.15;76.89
63281;BME280;49406;51.044;3.766;2022-10-30T10:49:47;101717.15;;;20.20;76.78
63281;BME280;49406;51.044;3.766;2022-10-30T10:52:37;101719.84;;;20.29;77.03
63281;BME280;49406;51.044;3.766;2022-10-30T10:55:17;101723.16;;;20.31;77.31
63281;BME280;49406;51.044;3.766;2022-10-30T10:57:53;101721.90;;;20.43;76.61
63281;BME280;49406;51.044;3.766;2022-10-30T11:00:31;101719.04;;;20.45;75.15
63281;BME280;49406;51.044;3.766;2022-10-30T11:03:10;101728.73;;;20.38;75.41
63281;BME280;49406;51.044;3.766;2022-10-30T11:05:47;101726.23;;;20.39;76.49
63281;BME280;49406;51.044;3.766;2022-10-30T11:08:24;101727.80;;;20.41;75.56
63281;BME280;49406;51.044;3.766;2022-10-30T11:11:01;101733.92;;;20.36;75.75
63281;BME280;49406;51.044;3.766;2022-10-30T11:13:35;101731.48;;;20.43;75.18
63281;BME280;49406;51.044;3.766;2022-10-30T11:16:19;101730.98;;;20.53;75.00
63281;BME280;49406;51.044;3.766;2022-10-30T11:18:59;101732.92;;;20.43;74.94
63281;BME280;49406;51.044;3.766;2022-10-30T11:21:37;101734.12;;;20.35;74.80
63281;BME280;49406;51.044;3.766;2022-10-30T11:24:24;101732.64;;;20.27;75.18
63281;BME280;49406;51.044;3.766;2022-10-30T11:27:15;101723.36;;;20.30;75.29
63281;BME280;49406;51.044;3.766;2022-10-30T11:29:52;101713.77;;;20.40;74.17
63281;BME280;49406;51.044;3.766;2022-10-30T11:32:29;101713.77;;;20.30;74.80
63281;BME280;49406;51.044;3.766;2022-10-30T11:35:13;101708.45;;;20.30;74.93
63281;BME280;49406;51.044;3.766;2022-10-30T11:37:50;101694.67;;;20.36;75.37
63281;BME280;49406;51.044;3.766;2022-10-30T11:40:24;101692.41;;;20.43;75.34
63281;BME280;49406;51.044;3.766;2022-10-30T11:43:01;101699.34;;;20.62;74.66
63281;BME280;49406;51.044;3.766;2022-10-30T11:45:38;101699.30;;;20.64;73.75
63281;BME280;49406;51.044;3.766;2022-10-30T11:48:20;101699.35;;;20.61;73.75
63281;BME280;49406;51.044;3.766;2022-10-30T11:50:59;101693.23;;;20.65;73.76
63281;BME280;49406;51.044;3.766;2022-10-30T11:53:35;101698.95;;;20.73;73.28
63281;BME280;49406;51.044;3.766;2022-10-30T11:56:16;101696.78;;;20.74;72.69
63281;BME280;49406;51.044;3.766;2022-10-30T11:58:55;101700.48;;;20.76;72.77
63281;BME280;49406;51.044;3.766;2022-10-30T12:01:32;101698.02;;;20.84;73.12
63281;BME280;49406;51.044;3.766;2022-10-30T12:04:23;101700.09;;;20.87;73.36
63281;BME280;49406;51.044;3.766;2022-10-30T12:07:07;101699.48;;;20.90;72.55
63281;BME280;49406;51.044;3.766;2022-10-30T12:09:46;101698.92;;;20.91;71.87
63281;BME280;49406;51.044;3.766;2022-10-30T12:12:28;101698.15;;;20.94;71.83
63281;BME280;49406;51.044;3.766;2022-10-30T12:15:16;101691.29;;;20.99;71.39
63281;BME280;49406;51.044;3.766;2022-10-30T12:17:57;101684.65;;;20.93;72.62
63281;BME280;49406;51.044;3.766;2022-10-30T12:20:35;101692.38;;;21.06;72.46
63281;BME280;49406;51.044;3.766;2022-10-30T12:23:09;101697.23;;;21.11;72.63
63281;BME280;49406;51.044;3.766;2022-10-30T12:25:47;101698.02;;;21.16;71.70
63281;BME280;49406;51.044;3.766;2022-10-30T12:28:23;101692.14;;;21.16;71.04
63281;BME280;49406;51.044;3.766;2022-10-30T12:31:02;101697.45;;;21.18;70.35
63281;BME280;49406;51.044;3.766;2022-10-30T12:33:41;101694.45;;;21.09;70.38
63281;BME280;49406;51.044;3.766;2022-10-30T12:36:21;101693.42;;;20.98;70.92
63281;BME280;49406;51.044;3.766;2022-10-30T12:38:56;101694.99;;;20.92;70.28
63281;BME280;49406;51.044;3.766;2022-10-30T12:41:35;101691.48;;;20.90;70.69
63281;BME280;49406;51.044;3.766;2022-10-30T12:44:17;101690.83;;;20.87;70.89
63281;BME280;49406;51.044;3.766;2022-10-30T12:46:55;101697.18;;;20.90;71.27
63281;BME280;49406;51.044;3.766;2022-10-30T12:49:40;101688.41;;;21.01;70.60
63281;BME280;49406;51.044;3.766;2022-10-30T12:52:19;101694.42;;;21.02;70.12
63281;BME280;49406;51.044;3.766;2022-10-30T12:54:59;101694.42;;;20.94;70.35
63281;BME280;49406;51.044;3.766;2022-10-30T12:57:37;101700.34;;;20.83;69.49
63281;BME280;49406;51.044;3.766;2022-10-30T13:02:54;101709.73;;;20.58;71.24
63281;BME280;49406;51.044;3.766;2022-10-30T13:05:34;101708.65;;;20.50;71.76
63281;BME280;49406;51.044;3.766;2022-10-30T13:08:21;101708.22;;;20.54;72.22
63281;BME280;49406;51.044;3.766;2022-10-30T13:11:04;101716.55;;;20.63;71.46
63281;BME280;49406;51.044;3.766;2022-10-30T13:13:44;101718.41;;;20.68;70.41
63281;BME280;49406;51.044;3.766;2022-10-30T13:16:24;101728.95;;;20.65;69.29
63281;BME280;49406;51.044;3.766;2022-10-30T13:19:00;101729.65;;;20.57;69.19
63281;BME280;49406;51.044;3.766;2022-10-30T13:21:40;101732.49;;;20.47;69.09
63281;BME280;49406;51.044;3.766;2022-10-30T13:24:20;101731.58;;;20.37;69.89
63281;BME280;49406;51.044;3.766;2022-10-30T13:27:01;101721.62;;;20.39;70.03
63281;BME280;49406;51.044;3.766;2022-10-30T13:29:42;101718.47;;;20.46;70.26
63281;BME280;49406;51.044;3.766;2022-10-30T13:32:29;101716.36;;;20.34;70.84
63281;BME280;49406;51.044;3.766;2022-10-30T13:35:16;101711.46;;;20.29;71.62
63281;BME280;49406;51.044;3.766;2022-10-30T13:37:59;101705.30;;;20.27;72.27
63281;BME280;49406;51.044;3.766;2022-10-30T13:40:38;101704.10;;;20.25;72.26